createdAt,value
2023-04-17T00:02:41.824Z,101239.56
2023-04-17T00:07:49.613Z,101240.44
2023-04-17T00:12:56.102Z,101237.81
2023-04-17T00:18:04.102Z,101243.06
2023-04-17T00:23:10.733Z,101241.31
2023-04-17T00:28:16.946Z,101242.19
2023-04-17T00:33:25.195Z,101236.13
2023-04-17T00:38:31.905Z,101234.38
2023-04-17T00:43:38.684Z,101246.53
2023-04-17T00:48:46.689Z,101246.50
2023-04-17T00:53:53.326Z,101247.38
2023-04-17T00:59:00.699Z,101260.38
2023-04-17T01:04:10.479Z,101260.34
2023-04-17T01:09:17.536Z,101260.34
2023-04-17T01:14:24.074Z,101262.09
2023-04-17T01:19:33.107Z,101254.31
2023-04-17T01:24:40.907Z,101260.38
2023-04-17T01:29:48.625Z,101265.56
2023-04-17T01:34:56.125Z,101272.47
2023-04-17T01:40:07.357Z,101270.75
2023-04-17T01:45:14.293Z,101281.97
2023-04-17T01:50:21.171Z,101276.78
2023-04-17T01:55:29.201Z,101257.75
2023-04-17T02:00:35.517Z,101271.59
2023-04-17T02:05:42.042Z,101279.38
2023-04-17T02:10:50.160Z,101285.44
2023-04-17T02:15:57.489Z,101294.94
2023-04-17T02:21:27.904Z,101288.91
2023-04-17T02:26:37.098Z,101293.22
2023-04-17T02:31:44.938Z,101291.50
2023-04-17T02:36:51.755Z,101294.94
2023-04-17T02:42:02.449Z,101294.09
2023-04-17T02:47:09.264Z,101295.84
2023-04-17T02:52:15.637Z,101303.63
2023-04-17T02:57:23.451Z,101302.75
2023-04-17T03:02:32.363Z,101300.16
2023-04-17T03:07:38.769Z,101302.78
2023-04-17T03:12:46.718Z,101306.22
2023-04-17T03:17:54.245Z,101312.25
2023-04-17T03:23:01.005Z,101301.91
2023-04-17T03:28:08.851Z,101301.88
2023-04-17T03:33:16.702Z,101304.50
2023-04-17T03:38:24.208Z,101318.31
2023-04-17T03:43:33.490Z,101308.81
2023-04-17T03:48:39.998Z,101320.91
2023-04-17T03:53:46.626Z,101320.94
2023-04-17T03:58:55.360Z,101331.31
2023-04-17T04:04:03.174Z,101337.38
2023-04-17T04:09:10.868Z,101342.56
2023-04-17T04:14:18.742Z,101339.09
2023-04-17T04:19:28.108Z,101344.31
2023-04-17T04:24:35.576Z,101349.50
2023-04-17T04:29:45.974Z,101349.50
2023-04-17T04:34:53.476Z,101345.19
2023-04-17T04:40:04.834Z,101347.75
2023-04-17T04:45:13.560Z,101350.34
2023-04-17T04:50:22.272Z,101346.03
2023-04-17T04:55:30.938Z,101354.69
2023-04-17T05:00:40.068Z,101358.16
2023-04-17T05:05:50.794Z,101359.88
2023-04-17T05:10:59.751Z,101360.75
2023-04-17T05:16:08.627Z,101368.56
2023-04-17T05:21:14.930Z,101368.53
2023-04-17T05:26:22.989Z,101374.59
2023-04-17T05:31:32.931Z,101376.34
2023-04-17T05:36:43.103Z,101379.78
2023-04-17T05:41:49.688Z,101384.97
2023-04-17T05:47:00.404Z,101382.38
2023-04-17T05:52:07.470Z,101388.44
2023-04-17T05:57:18.515Z,101388.44
2023-04-17T06:02:26.601Z,101389.28
2023-04-17T06:07:36.154Z,101385.81
2023-04-17T06:12:43.136Z,101389.25
2023-04-17T06:17:53.091Z,101392.69
2023-04-17T06:22:59.735Z,101383.16
2023-04-17T06:28:06.765Z,101383.13
2023-04-17T06:33:15.224Z,101390.06
2023-04-17T06:38:22.857Z,101381.31
2023-04-17T06:43:29.215Z,101383.94
2023-04-17T06:48:37.847Z,101390.00
2023-04-17T06:53:44.452Z,101392.59
2023-04-17T06:58:50.950Z,101400.44
2023-04-17T07:03:59.330Z,101397.81
2023-04-17T07:09:06.020Z,101387.41
2023-04-17T07:14:12.999Z,101392.56
2023-04-17T07:19:21.445Z,101394.25
2023-04-17T07:24:28.158Z,101413.31
2023-04-17T07:29:35.821Z,101395.91
2023-04-17T07:34:43.747Z,101411.41
2023-04-17T07:39:51.673Z,101420.91
2023-04-17T07:44:59.313Z,101426.06
2023-04-17T07:50:08.944Z,101435.56
2023-04-17T07:55:15.266Z,101435.56
2023-04-17T08:00:22.241Z,101435.38
2023-04-17T08:05:31.203Z,101441.19
2023-04-17T08:10:37.770Z,101444.66
2023-04-17T08:15:44.322Z,101455.03
2023-04-17T08:20:52.744Z,101447.06
2023-04-17T08:25:58.946Z,101451.25
2023-04-17T08:31:05.345Z,101450.34
2023-04-17T08:36:14.650Z,101454.56
2023-04-17T08:41:25.885Z,101451.94
2023-04-17T08:46:34.972Z,101453.47
2023-04-17T08:51:43.496Z,101456.78
2023-04-17T08:56:50.025Z,101467.97
2023-04-17T09:02:04.401Z,101464.34
2023-04-17T09:07:14.131Z,101469.34
2023-04-17T09:12:21.505Z,101466.75
2023-04-17T09:17:38.094Z,101476.13
2023-04-17T09:22:46.857Z,101479.47
2023-04-17T09:27:53.204Z,101477.69
2023-04-17T09:33:10.264Z,101472.50
2023-04-17T09:38:18.557Z,101483.66
2023-04-17T09:43:25.124Z,101480.22
2023-04-17T09:48:31.764Z,101480.88
2023-04-17T09:53:40.318Z,101474.69
2023-04-17T09:58:46.786Z,101485.13
2023-04-17T10:03:53.455Z,101476.31
2023-04-17T10:09:02.244Z,101482.34
2023-04-17T10:14:17.150Z,101486.16
2023-04-17T10:19:31.326Z,101485.38
2023-04-17T10:24:39.632Z,101483.28
2023-04-17T10:29:55.501Z,101479.50
2023-04-17T10:35:04.432Z,101474.66
2023-04-17T10:40:15.324Z,101479.00
2023-04-17T10:45:22.250Z,101477.84
2023-04-17T10:50:31.158Z,101475.34
2023-04-17T10:55:51.563Z,101476.25
2023-04-17T11:00:58.103Z,101474.09
2023-04-17T11:06:05.748Z,101481.88
2023-04-17T11:11:15.471Z,101475.22
2023-04-17T11:16:23.687Z,101478.34
2023-04-17T11:21:30.117Z,101483.41
2023-04-17T11:26:45.719Z,101477.44
2023-04-17T11:31:54.986Z,101470.19
2023-04-17T11:37:03.535Z,101474.53
2023-04-17T11:42:11.608Z,101477.69
2023-04-17T11:47:21.261Z,101473.88
2023-04-17T11:52:31.150Z,101464.06
2023-04-17T11:57:45.281Z,101469.03
2023-04-17T12:02:52.471Z,101464.66
2023-04-17T12:08:04.723Z,101463.00
2023-04-17T12:13:13.812Z,101459.41
2023-04-17T12:18:20.072Z,101463.94
2023-04-17T12:23:27.030Z,101456.50
2023-04-17T12:28:35.028Z,101455.69
2023-04-17T12:33:41.873Z,101463.88
2023-04-17T12:38:48.358Z,101454.84
2023-04-17T12:44:00.435Z,101449.22
2023-04-17T12:49:07.554Z,101452.31
2023-04-17T12:54:14.589Z,101445.47
2023-04-17T12:59:22.808Z,101444.97
2023-04-17T13:04:29.665Z,101446.03
2023-04-17T13:09:36.535Z,101448.53
2023-04-17T13:14:45.056Z,101442.22
2023-04-17T13:19:51.503Z,101450.88
2023-04-17T13:24:57.865Z,101448.38
2023-04-17T13:30:06.797Z,101447.94
2023-04-17T13:35:13.871Z,101452.59
2023-04-17T13:40:20.318Z,101453.50
2023-04-17T13:45:28.218Z,101467.47
2023-04-17T13:50:34.664Z,101463.22
2023-04-17T13:55:41.251Z,101473.91
2023-04-17T14:00:49.261Z,101469.28
2023-04-17T14:05:56.991Z,101467.75
2023-04-17T14:11:04.678Z,101469.53
2023-04-17T14:16:12.915Z,101471.63
2023-04-17T14:21:22.186Z,101468.25
2023-04-17T14:26:28.700Z,101465.63
2023-04-17T14:31:36.856Z,101468.56
2023-04-17T14:36:43.858Z,101465.38
2023-04-17T14:41:50.729Z,101470.91
2023-04-17T14:46:58.885Z,101463.19
2023-04-17T14:52:05.472Z,101464.97
2023-04-17T14:57:12.296Z,101470.09
2023-04-17T15:02:20.430Z,101463.88
2023-04-17T15:07:26.995Z,101467.31
2023-04-17T15:12:33.548Z,101460.28
2023-04-17T15:17:42.871Z,101461.09
2023-04-17T15:22:52.795Z,101462.81
2023-04-17T15:27:59.046Z,101461.09
2023-04-17T15:33:10.531Z,101468.88
2023-04-17T15:38:16.914Z,101458.25
2023-04-17T15:43:23.603Z,101468.56
2023-04-17T15:48:31.659Z,101469.97
2023-04-17T15:53:38.171Z,101465.50
2023-04-17T15:58:45.861Z,101477.84
2023-04-17T16:03:54.694Z,101469.28
2023-04-17T16:09:01.961Z,101481.00
2023-04-17T16:14:09.002Z,101474.09
2023-04-17T16:19:17.115Z,101480.41
2023-04-17T16:24:23.788Z,101484.91
2023-04-17T16:29:30.798Z,101484.91
2023-04-17T16:34:39.280Z,101487.59
2023-04-17T16:39:46.120Z,101493.84
2023-04-17T16:44:52.934Z,101498.41
2023-04-17T16:50:01.111Z,101503.75
2023-04-17T16:55:11.272Z,101497.75
2023-04-17T17:00:19.545Z,101508.31
2023-04-17T17:05:28.281Z,101522.41
2023-04-17T17:10:35.108Z,101509.38
2023-04-17T17:15:42.326Z,101517.41
2023-04-17T17:20:51.220Z,101528.00
2023-04-17T17:25:57.812Z,101531.56
2023-04-17T17:31:06.242Z,101534.25
2023-04-17T17:36:16.556Z,101539.63
2023-04-17T17:41:23.700Z,101554.47
2023-04-17T17:46:30.979Z,101550.19
2023-04-17T17:51:39.729Z,101552.97
2023-04-17T17:56:48.203Z,101557.34
2023-04-17T18:01:55.715Z,101556.66
2023-04-17T18:07:06.936Z,101561.94
2023-04-17T18:12:19.359Z,101576.00
2023-04-17T18:17:28.239Z,101578.81
2023-04-17T18:22:38.866Z,101584.06
2023-04-17T18:27:46.952Z,101590.34
2023-04-17T18:32:57.107Z,101596.53
2023-04-17T18:38:07.719Z,101603.59
2023-04-17T18:43:16.035Z,101607.16
2023-04-17T18:48:27.990Z,101605.50
2023-04-17T18:53:37.860Z,101617.72
2023-04-17T18:58:47.673Z,101625.69
2023-04-17T19:03:55.911Z,101622.25
2023-04-17T19:09:12.409Z,101623.16
2023-04-17T19:14:20.688Z,101621.47
2023-04-17T19:19:33.280Z,101626.78
2023-04-17T19:24:43.261Z,101633.75
2023-04-17T19:29:51.847Z,101632.06
2023-04-17T19:35:03.550Z,101628.59
2023-04-17T19:40:24.455Z,101626.06
2023-04-17T19:45:36.563Z,101629.56
2023-04-17T19:50:45.276Z,101629.59
2023-04-17T19:55:55.694Z,101630.47
2023-04-17T20:01:03.940Z,101632.25
2023-04-17T20:06:13.289Z,101629.66
2023-04-17T20:11:24.361Z,101632.34
2023-04-17T20:16:32.507Z,101634.97
2023-04-17T20:21:43.916Z,101626.28
2023-04-17T20:26:53.745Z,101632.41
2023-04-17T20:32:03.615Z,101632.44
2023-04-17T20:37:10.901Z,101630.72
2023-04-17T20:42:19.749Z,101641.19
2023-04-17T20:47:26.650Z,101642.91
2023-04-17T20:52:33.841Z,101637.75
2023-04-17T20:57:42.180Z,101643.00
2023-04-17T21:02:48.802Z,101647.34
2023-04-17T21:07:58.057Z,101653.44
2023-04-17T21:13:06.438Z,101653.47
2023-04-17T21:18:12.894Z,101656.97
2023-04-17T21:23:19.340Z,101656.09
2023-04-17T21:28:27.244Z,101670.00
2023-04-17T21:33:33.563Z,101670.00
2023-04-17T21:38:40.869Z,101668.31
2023-04-17T21:43:49.353Z,101662.25
2023-04-17T21:48:56.240Z,101655.28
2023-04-17T21:54:02.807Z,101663.09
2023-04-17T21:59:10.982Z,101661.38
2023-04-17T22:04:17.290Z,101665.75
2023-04-17T22:09:24.394Z,101667.47
2023-04-17T22:14:32.382Z,101669.22
2023-04-17T22:19:38.817Z,101664.88
2023-04-17T22:25:20.818Z,101671.00
2023-04-17T22:31:05.383Z,101667.50
2023-04-17T22:36:49.801Z,101675.31
2023-04-17T22:42:50.452Z,101675.31
2023-04-17T22:49:11.593Z,101684.91
2023-04-17T22:54:36.340Z,101677.97
2023-04-17T23:00:18.515Z,101679.69
2023-04-17T23:06:02.085Z,101673.63
2023-04-17T23:11:27.153Z,101674.50
2023-04-17T23:16:33.769Z,101670.16
2023-04-17T23:21:41.855Z,101664.97
2023-04-17T23:26:49.063Z,101666.72
2023-04-17T23:31:55.728Z,101668.47
2023-04-17T23:37:03.644Z,101663.25
2023-04-17T23:42:10.036Z,101665.00
2023-04-17T23:47:16.391Z,101665.88
2023-04-17T23:52:24.076Z,101659.81
2023-04-17T23:57:34.878Z,101663.28
